Time;durP1;ratioP1;P1;durP2;ratioP2;P2;SDS_P1;SDS_P2;PMS_P1;PMS_P2;Temp;Humidity;BMP_temperature;BMP_pressure;BME280_temperature;BME280_humidity;BME280_pressure;Samples;Min_cycle;Max_cycle;Signal;HPM_P1;HPM_P2
2024/03/10 00:02:23;;;;;;;5.90;3.97;;;12.20;1.00;;;;;;5085903;28;20194;-82
2024/03/10 00:04:49;;;;;;;7.07;4.33;;;12.20;1.00;;;;;;5086700;28;20252;-81
2024/03/10 00:07:15;;;;;;;7.60;4.30;;;12.30;1.00;;;;;;5072151;28;20176;-82
2024/03/10 00:09:41;;;;;;;5.90;4.30;;;12.30;1.00;;;;;;5088868;28;20168;-81
2024/03/10 00:12:06;;;;;;;6.97;4.50;;;12.30;1.00;;;;;;5088631;28;20171;-83
2024/03/10 00:14:33;;;;;;;7.10;4.57;;;12.30;1.00;;;;;;5087083;28;20709;-81
2024/03/10 00:16:58;;;;;;;6.13;4.07;;;12.30;1.00;;;;;;5076482;28;20190;-82
2024/03/10 00:19:25;;;;;;;6.17;4.57;;;12.30;1.00;;;;;;5085437;28;20695;-82
2024/03/10 00:21:51;;;;;;;6.87;4.60;;;12.30;1.00;;;;;;5086560;28;20172;-81
2024/03/10 00:24:19;;;;;;;6.40;4.27;;;12.40;1.00;;;;;;5074929;28;20239;-82
2024/03/10 00:26:45;;;;;;;5.73;4.77;;;12.40;1.00;;;;;;5084914;28;20272;-82
2024/03/10 00:29:11;;;;;;;7.37;5.03;;;12.30;1.00;;;;;;5093996;28;20235;-81
2024/03/10 00:31:37;;;;;;;10.00;4.60;;;12.30;1.00;;;;;;5081884;28;20185;-81
2024/03/10 00:34:05;;;;;;;7.00;5.13;;;12.30;1.00;;;;;;5090242;28;20693;-81
2024/03/10 00:36:31;;;;;;;7.23;4.87;;;12.30;1.00;;;;;;5073895;28;20164;-80
2024/03/10 00:38:56;;;;;;;6.63;4.90;;;12.30;1.00;;;;;;5082611;28;20254;-81
2024/03/10 00:41:22;;;;;;;7.37;4.83;;;12.20;1.00;;;;;;5078055;28;20174;-82
2024/03/10 00:43:48;;;;;;;8.30;6.33;;;12.20;1.00;;;;;;5083683;28;20197;-82
2024/03/10 00:46:15;;;;;;;7.73;5.80;;;12.20;1.00;;;;;;5080780;28;20272;-80
2024/03/10 00:48:40;;;;;;;10.93;6.63;;;12.20;1.00;;;;;;5081777;28;20604;-82
2024/03/10 00:51:06;;;;;;;9.03;6.30;;;12.20;1.00;;;;;;5083191;28;20175;-82
2024/03/10 00:53:31;;;;;;;11.00;6.60;;;12.20;1.00;;;;;;5085449;28;20663;-81
2024/03/10 00:55:57;;;;;;;9.53;6.77;;;12.20;1.00;;;;;;5080787;28;20342;-81
2024/03/10 00:58:23;;;;;;;10.17;7.50;;;12.10;1.00;;;;;;5081131;28;20191;-84
2024/03/10 01:00:48;;;;;;;10.20;7.33;;;12.10;1.00;;;;;;5084281;28;20169;-82
2024/03/10 01:03:15;;;;;;;12.07;8.10;;;12.00;1.00;;;;;;5089449;28;20494;-82
2024/03/10 01:05:41;;;;;;;13.07;8.60;;;12.10;1.00;;;;;;5084040;28;20264;-82
2024/03/10 01:08:07;;;;;;;11.17;8.43;;;12.10;1.00;;;;;;5080592;28;20181;-82
2024/03/10 01:10:33;;;;;;;12.73;9.07;;;12.10;1.00;;;;;;5083978;28;20216;-93
2024/03/10 01:12:58;;;;;;;13.97;8.97;;;12.10;1.00;;;;;;5082605;28;20201;-82
2024/03/10 01:15:24;;;;;;;14.57;9.23;;;12.10;1.00;;;;;;5076540;28;20601;-88
2024/03/10 01:17:50;;;;;;;11.70;8.87;;;12.00;1.00;;;;;;5089090;28;20172;-81
2024/03/10 01:20:16;;;;;;;12.40;9.17;;;12.10;1.00;;;;;;5085189;28;20174;-82
2024/03/10 01:22:42;;;;;;;13.27;9.70;;;12.10;1.00;;;;;;5072190;28;20203;-81
2024/03/10 01:25:08;;;;;;;13.87;10.00;;;12.10;1.00;;;;;;5087303;28;20175;-82
2024/03/10 01:27:36;;;;;;;13.03;9.97;;;12.10;1.00;;;;;;5082775;28;20183;-88
2024/03/10 01:30:02;;;;;;;13.60;9.57;;;12.00;1.00;;;;;;5084071;28;20167;-82
2024/03/10 01:32:29;;;;;;;13.17;9.67;;;12.00;1.00;;;;;;5080710;28;20170;-81
2024/03/10 01:34:55;;;;;;;12.30;9.30;;;12.00;1.00;;;;;;5083700;28;20256;-81
2024/03/10 01:37:21;;;;;;;14.93;9.90;;;11.90;1.00;;;;;;5085203;28;20639;-82
2024/03/10 01:39:47;;;;;;;14.87;11.10;;;11.90;1.00;;;;;;5083764;28;20222;-87
2024/03/10 01:42:13;;;;;;;12.77;10.53;;;11.80;1.00;;;;;;5079607;28;20164;-82
2024/03/10 01:44:39;;;;;;;12.93;9.87;;;11.90;1.00;;;;;;5084171;28;20179;-83
2024/03/10 01:47:05;;;;;;;15.20;11.10;;;11.80;1.00;;;;;;5086064;28;20179;-83
2024/03/10 01:49:31;;;;;;;15.53;10.90;;;11.80;1.00;;;;;;5079624;28;20220;-82
2024/03/10 01:51:57;;;;;;;15.57;10.90;;;11.80;1.00;;;;;;5080062;28;20335;-89
2024/03/10 01:54:31;;;;;;;14.03;10.93;;;11.80;1.00;;;;;;5086999;28;20291;-82
2024/03/10 01:56:58;;;;;;;15.33;11.97;;;11.70;1.00;;;;;;5086076;28;20195;-85
2024/03/10 01:59:25;;;;;;;13.33;10.93;;;11.80;1.00;;;;;;5085349;28;20176;-81
2024/03/10 02:01:53;;;;;;;15.17;10.90;;;11.80;1.00;;;;;;5082941;28;20201;-87
2024/03/10 02:04:20;;;;;;;15.87;11.17;;;11.80;1.00;;;;;;5079945;28;20176;-80
2024/03/10 02:06:46;;;;;;;15.83;10.63;;;11.80;1.00;;;;;;5083822;28;20194;-81
2024/03/10 02:09:16;;;;;;;15.13;10.70;;;11.70;1.00;;;;;;5082891;28;20167;-92
2024/03/10 02:11:42;;;;;;;14.90;11.33;;;11.70;1.00;;;;;;5080885;28;20163;-84
2024/03/10 02:14:08;;;;;;;15.73;11.30;;;11.80;1.00;;;;;;5083298;28;20227;-81
2024/03/10 02:16:33;;;;;;;15.30;10.50;;;11.80;1.00;;;;;;5080786;28;20687;-80
2024/03/10 02:18:59;;;;;;;14.40;11.53;;;11.70;1.00;;;;;;5080977;28;20458;-85
2024/03/10 02:21:27;;;;;;;15.43;11.73;;;11.70;1.00;;;;;;5084857;28;20628;-85
2024/03/10 02:24:23;;;;;;;15.27;11.57;;;11.70;1.00;;;;;;5082057;28;20185;-81
2024/03/10 02:26:49;;;;;;;13.13;10.70;;;11.70;1.00;;;;;;5080643;28;20169;-86
2024/03/10 02:29:18;;;;;;;13.63;10.87;;;11.70;1.00;;;;;;5074542;28;20257;-81
2024/03/10 02:48:13;;;;;;;16.20;11.20;;;11.70;1.00;;;;;;5094045;28;20229;-83
2024/03/10 02:50:39;;;;;;;13.27;10.70;;;11.70;1.00;;;;;;5076463;28;20183;-81
2024/03/10 02:53:07;;;;;;;14.60;10.40;;;11.70;1.00;;;;;;5092288;28;20192;-82
2024/03/10 02:55:33;;;;;;;14.60;10.53;;;11.70;1.00;;;;;;5086393;28;20175;-90
2024/03/10 02:58:06;;;;;;;14.63;11.03;;;11.70;1.00;;;;;;5082446;28;20191;-81
2024/03/10 03:00:35;;;;;;;14.17;11.70;;;11.70;1.00;;;;;;5080189;28;20221;-81
2024/03/10 03:03:03;;;;;;;13.77;10.50;;;11.70;1.00;;;;;;5084153;28;20198;-81
2024/03/10 03:05:30;;;;;;;14.40;10.63;;;11.70;1.00;;;;;;5089005;28;20164;-81
2024/03/10 03:07:57;;;;;;;13.93;10.93;;;11.70;1.00;;;;;;5079666;28;20176;-80
2024/03/10 03:10:22;;;;;;;13.63;10.10;;;11.70;1.00;;;;;;5085311;28;20190;-82
2024/03/10 03:12:48;;;;;;;14.23;10.67;;;11.70;1.00;;;;;;5086341;28;20205;-81
2024/03/10 03:15:17;;;;;;;12.93;10.13;;;11.70;1.00;;;;;;5078380;28;20180;-82
2024/03/10 03:17:43;;;;;;;14.13;10.63;;;11.80;1.00;;;;;;5081215;28;20198;-82
2024/03/10 03:20:15;;;;;;;15.10;10.47;;;11.80;1.00;;;;;;5088556;28;20172;-81
2024/03/10 03:22:44;;;;;;;13.37;10.90;;;11.80;1.00;;;;;;5083354;28;20176;-81
2024/03/10 03:25:13;;;;;;;14.50;10.87;;;11.80;1.00;;;;;;5100293;28;20165;-84
2024/03/10 03:27:46;;;;;;;13.87;11.03;;;11.80;1.00;;;;;;5077192;28;20169;-80
2024/03/10 03:30:11;;;;;;;14.20;10.73;;;11.80;1.00;;;;;;5086689;28;20176;-81
2024/03/10 03:32:37;;;;;;;13.30;10.53;;;11.80;1.00;;;;;;5083813;28;20168;-82
2024/03/10 03:35:03;;;;;;;13.87;10.13;;;11.80;1.00;;;;;;5085879;28;20260;-82
2024/03/10 03:37:30;;;;;;;14.90;10.90;;;11.70;1.00;;;;;;5077641;28;20165;-81
2024/03/10 03:39:57;;;;;;;13.90;10.63;;;11.70;1.00;;;;;;5084684;28;20196;-81
2024/03/10 03:42:23;;;;;;;14.70;11.03;;;11.70;1.00;;;;;;5075724;28;20247;-80
2024/03/10 03:44:51;;;;;;;12.97;10.60;;;11.70;1.00;;;;;;5086591;28;20182;-81
2024/03/10 03:47:17;;;;;;;13.87;10.53;;;11.70;1.00;;;;;;5087580;28;20270;-80
2024/03/10 03:49:45;;;;;;;15.63;11.10;;;11.60;1.00;;;;;;5094418;28;20201;-81
2024/03/10 03:52:10;;;;;;;15.77;10.90;;;11.60;1.00;;;;;;5092720;28;20199;-81
2024/03/10 03:54:39;;;;;;;18.23;11.03;;;11.50;1.00;;;;;;5091750;28;20306;-82
2024/03/10 03:57:06;;;;;;;14.23;11.43;;;11.50;1.00;;;;;;5093910;28;20168;-94
2024/03/10 03:59:32;;;;;;;13.90;10.93;;;11.60;1.00;;;;;;5092388;28;20210;-83
2024/03/10 04:01:58;;;;;;;14.47;11.67;;;11.60;1.00;;;;;;5092017;28;20211;-82
2024/03/10 04:04:24;;;;;;;17.50;11.37;;;11.50;1.00;;;;;;5091617;28;20236;-81
2024/03/10 04:06:49;;;;;;;15.93;11.23;;;11.50;1.00;;;;;;5092194;28;20176;-81
2024/03/10 04:09:15;;;;;;;13.57;10.23;;;11.60;1.00;;;;;;5092518;28;20183;-80
2024/03/10 04:11:42;;;;;;;15.00;11.53;;;11.70;1.00;;;;;;5091621;28;20168;-90
2024/03/10 04:14:08;;;;;;;16.03;11.93;;;11.90;1.00;;;;;;5093879;28;20688;-81
2024/03/10 04:16:34;;;;;;;13.03;10.77;;;12.10;1.00;;;;;;5092748;28;20196;-80
2024/03/10 04:19:00;;;;;;;14.23;11.03;;;12.10;1.00;;;;;;5091514;28;20544;-81
2024/03/10 04:21:25;;;;;;;15.30;11.60;;;12.10;1.00;;;;;;5094090;28;20632;-81
2024/03/10 04:23:51;;;;;;;13.97;11.87;;;12.10;1.00;;;;;;5091401;28;20172;-82
2024/03/10 04:26:18;;;;;;;15.80;11.67;;;12.00;1.00;;;;;;5091906;28;20171;-81
2024/03/10 04:28:44;;;;;;;15.60;11.60;;;11.90;1.00;;;;;;5091522;28;20183;-81
2024/03/10 04:31:09;;;;;;;13.80;11.07;;;11.80;1.00;;;;;;5092357;28;20173;-81
2024/03/10 04:33:36;;;;;;;13.30;11.37;;;11.80;1.00;;;;;;5092827;28;20780;-81
2024/03/10 04:36:01;;;;;;;15.17;10.93;;;12.10;1.00;;;;;;5091964;28;20554;-84
2024/03/10 04:38:27;;;;;;;14.17;11.30;;;12.10;1.00;;;;;;5092028;28;20187;-80
2024/03/10 04:40:53;;;;;;;13.83;11.10;;;12.20;1.00;;;;;;5091772;28;20174;-82
2024/03/10 04:43:19;;;;;;;13.90;11.23;;;12.20;1.00;;;;;;5093416;28;20659;-80
2024/03/10 04:45:44;;;;;;;16.47;11.80;;;12.10;1.00;;;;;;5092772;28;20172;-81
2024/03/10 04:48:11;;;;;;;14.90;11.37;;;12.10;1.00;;;;;;5091381;28;20592;-81
2024/03/10 04:50:37;;;;;;;15.97;11.13;;;12.20;1.00;;;;;;5093372;28;20198;-81
2024/03/10 04:53:03;;;;;;;12.57;9.93;;;11.90;1.00;;;;;;5091275;28;20230;-80
2024/03/10 04:55:31;;;;;;;12.93;10.30;;;11.80;1.00;;;;;;5090868;28;20666;-81
2024/03/10 04:57:57;;;;;;;12.63;10.40;;;11.90;1.00;;;;;;5092996;28;20202;-82
2024/03/10 05:00:22;;;;;;;16.40;12.10;;;12.00;1.00;;;;;;5090492;28;20226;-82
2024/03/10 05:02:48;;;;;;;14.97;10.43;;;12.00;1.00;;;;;;5092621;28;20194;-81
2024/03/10 05:05:15;;;;;;;15.30;11.23;;;12.10;1.00;;;;;;5091003;28;20656;-81
2024/03/10 05:07:41;;;;;;;14.80;10.27;;;12.10;1.00;;;;;;5072046;28;20221;-79
2024/03/10 05:10:08;;;;;;;13.03;10.07;;;11.90;1.00;;;;;;5071844;28;20176;-87
2024/03/10 05:12:35;;;;;;;15.63;11.87;;;11.90;1.00;;;;;;5071181;28;20184;-82
2024/03/10 05:15:03;;;;;;;13.83;10.90;;;11.70;1.00;;;;;;5071575;28;20206;-80
2024/03/10 05:17:29;;;;;;;14.27;11.47;;;11.70;1.00;;;;;;5073090;28;20644;-82
2024/03/10 05:19:55;;;;;;;15.47;11.37;;;11.60;1.00;;;;;;5072180;28;20214;-81
2024/03/10 05:22:21;;;;;;;13.37;11.00;;;11.70;1.00;;;;;;5071187;28;20221;-80
2024/03/10 05:24:46;;;;;;;14.67;11.13;;;11.70;1.00;;;;;;5071031;28;20184;-82
2024/03/10 05:27:15;;;;;;;14.20;11.10;;;11.50;1.00;;;;;;5071629;28;20176;-89
2024/03/10 05:29:41;;;;;;;15.13;11.60;;;11.40;1.00;;;;;;5070233;28;20267;-81
2024/03/10 05:32:07;;;;;;;13.80;11.33;;;11.40;1.00;;;;;;5071077;28;20618;-82
2024/03/10 05:34:35;;;;;;;13.00;11.07;;;11.50;1.00;;;;;;5070802;28;20222;-81
2024/03/10 05:37:03;;;;;;;14.47;11.53;;;11.50;1.00;;;;;;5069909;28;20611;-81
2024/03/10 05:39:29;;;;;;;12.73;10.57;;;11.50;1.00;;;;;;5070491;28;20200;-81
2024/03/10 05:41:54;;;;;;;14.73;11.43;;;11.40;1.00;;;;;;5071026;28;20222;-81
2024/03/10 05:44:20;;;;;;;13.63;11.43;;;11.30;1.00;;;;;;5072263;28;20194;-82
2024/03/10 05:46:46;;;;;;;15.27;12.07;;;11.30;1.00;;;;;;5071003;28;20612;-84
2024/03/10 05:49:12;;;;;;;13.27;11.00;;;11.30;1.00;;;;;;5071910;28;20296;-81
2024/03/10 05:51:38;;;;;;;13.40;10.93;;;11.20;1.00;;;;;;5070178;28;20215;-80
2024/03/10 05:54:06;;;;;;;14.87;10.87;;;11.10;1.00;;;;;;5070289;28;20219;-81
2024/03/10 05:56:35;;;;;;;15.97;11.30;;;11.10;1.00;;;;;;5070940;28;20275;-80
2024/03/10 05:59:01;;;;;;;13.77;11.43;;;11.00;1.00;;;;;;5070677;28;20668;-82
2024/03/10 06:01:28;;;;;;;14.80;10.27;;;11.10;1.00;;;;;;5071083;28;20165;-84
2024/03/10 06:03:54;;;;;;;15.03;12.03;;;11.10;1.00;;;;;;5070503;28;20240;-82
2024/03/10 06:06:23;;;;;;;14.90;10.90;;;11.00;1.00;;;;;;5070017;28;20260;-81
2024/03/10 06:08:49;;;;;;;13.17;10.90;;;11.00;1.00;;;;;;5070960;28;20179;-82
2024/03/10 06:11:15;;;;;;;14.97;11.40;;;11.10;1.00;;;;;;5071959;28;20172;-81
2024/03/10 06:13:40;;;;;;;14.07;11.33;;;11.00;1.00;;;;;;5075331;28;20200;-83
2024/03/10 06:16:07;;;;;;;14.83;11.23;;;11.00;1.00;;;;;;5074389;28;20192;-89
2024/03/10 06:25:22;;;;;;;14.80;11.53;;;11.20;1.00;;;;;;5074218;28;20554;-93
2024/03/10 06:27:07;;;;;;;15.63;11.87;;;11.20;1.00;;;;;;5076643;28;20385;-92
2024/03/10 06:29:33;;;;;;;13.90;10.93;;;11.20;1.00;;;;;;5075415;28;20229;-81
2024/03/10 06:31:58;;;;;;;14.53;11.00;;;11.10;1.00;;;;;;5075528;28;20670;-81
2024/03/10 06:34:24;;;;;;;13.17;10.30;;;11.00;1.00;;;;;;5079870;28;20208;-82
2024/03/10 06:36:50;;;;;;;12.67;10.33;;;11.00;1.00;;;;;;5078742;28;20176;-83
2024/03/10 06:39:19;;;;;;;14.73;11.27;;;11.00;1.00;;;;;;5075666;28;20199;-81
2024/03/10 06:41:46;;;;;;;14.50;10.77;;;11.10;1.00;;;;;;5083797;28;20214;-81
2024/03/10 06:44:14;;;;;;;14.67;10.93;;;11.10;1.00;;;;;;5098538;28;20188;-82
2024/03/10 06:46:42;;;;;;;14.43;11.33;;;11.00;1.00;;;;;;5098886;28;20164;-84
2024/03/10 06:49:08;;;;;;;17.47;11.57;;;11.10;1.00;;;;;;5099706;28;20182;-81
2024/03/10 06:51:34;;;;;;;14.07;11.23;;;11.10;1.00;;;;;;5097459;28;20180;-81
2024/03/10 06:53:59;;;;;;;13.27;10.30;;;11.20;1.00;;;;;;5098005;28;20658;-82
2024/03/10 06:56:25;;;;;;;16.17;11.43;;;11.20;1.00;;;;;;5095210;28;20174;-81
2024/03/10 06:58:54;;;;;;;14.47;11.27;;;11.20;1.00;;;;;;5094521;28;20167;-80
2024/03/10 07:01:22;;;;;;;12.83;10.40;;;11.30;1.00;;;;;;5094062;28;20177;-81
2024/03/10 07:03:48;;;;;;;14.43;10.53;;;11.40;1.00;;;;;;5095002;28;20184;-81
2024/03/10 07:06:21;;;;;;;15.07;11.20;;;11.40;1.00;;;;;;5094240;28;20276;-81
2024/03/10 07:08:48;;;;;;;14.97;11.43;;;11.50;1.00;;;;;;5096726;28;20157;-85
2024/03/10 07:11:14;;;;;;;15.63;10.60;;;11.40;1.00;;;;;;5093600;28;20696;-83
2024/03/10 07:13:40;;;;;;;15.57;11.27;;;11.50;1.00;;;;;;5093841;28;20301;-81
2024/03/10 07:16:06;;;;;;;14.40;10.97;;;11.50;1.00;;;;;;5093884;28;20164;-88
2024/03/10 07:18:32;;;;;;;15.30;11.50;;;11.50;1.00;;;;;;5093162;28;20181;-81
2024/03/10 07:20:58;;;;;;;15.67;11.50;;;11.50;1.00;;;;;;5092660;28;20171;-82
2024/03/10 07:23:24;;;;;;;13.00;10.27;;;11.60;1.00;;;;;;5093408;28;20188;-81
2024/03/10 07:25:50;;;;;;;15.10;11.30;;;11.60;1.00;;;;;;5094176;28;20617;-82
2024/03/10 07:28:16;;;;;;;14.70;10.80;;;11.60;1.00;;;;;;5092737;28;20227;-82
2024/03/10 07:30:41;;;;;;;15.70;10.40;;;11.60;1.00;;;;;;5095750;28;20206;-81
2024/03/10 07:33:07;;;;;;;13.70;10.83;;;11.50;1.00;;;;;;5092934;28;20243;-82
2024/03/10 07:35:33;;;;;;;15.03;10.70;;;11.50;1.00;;;;;;5095387;28;20167;-82
2024/03/10 07:37:58;;;;;;;12.57;10.60;;;11.50;1.00;;;;;;5092670;28;20202;-82
2024/03/10 07:40:24;;;;;;;14.87;11.63;;;11.60;1.00;;;;;;5092782;28;20529;-89
2024/03/10 07:42:50;;;;;;;13.70;11.57;;;11.60;1.00;;;;;;5092766;28;20173;-82
2024/03/10 07:45:17;;;;;;;14.60;11.33;;;11.70;1.00;;;;;;5092927;28;20169;-81
2024/03/10 07:47:45;;;;;;;13.47;11.80;;;11.80;1.00;;;;;;5092678;28;20679;-85
2024/03/10 07:50:15;;;;;;;14.20;10.70;;;11.90;1.00;;;;;;5092810;28;20712;-81
2024/03/10 07:52:42;;;;;;;14.27;11.00;;;12.10;1.00;;;;;;5092237;28;20273;-82
2024/03/10 07:55:11;;;;;;;13.53;11.23;;;12.20;1.00;;;;;;5091845;28;20214;-81
2024/03/10 07:57:40;;;;;;;18.67;13.93;;;12.40;1.00;;;;;;5092388;28;20172;-80
2024/03/10 08:00:11;;;;;;;16.73;12.77;;;12.50;1.00;;;;;;5092918;28;20177;-82
2024/03/10 08:02:38;;;;;;;17.03;13.30;;;12.60;1.00;;;;;;5092226;28;20742;-81
2024/03/10 08:05:06;;;;;;;15.00;11.93;;;12.60;1.00;;;;;;5091681;28;20599;-82
2024/03/10 08:07:31;;;;;;;15.03;12.13;;;12.70;1.00;;;;;;5091413;28;20176;-81
2024/03/10 08:09:58;;;;;;;15.93;12.43;;;12.70;1.00;;;;;;5091466;28;20630;-81
2024/03/10 08:12:25;;;;;;;14.67;11.50;;;12.70;1.00;;;;;;5090973;28;20185;-82
2024/03/10 08:14:50;;;;;;;15.37;12.30;;;12.80;1.00;;;;;;5092734;28;20242;-82
2024/03/10 08:17:16;;;;;;;16.63;12.57;;;12.80;1.00;;;;;;5090849;28;20174;-81
2024/03/10 08:19:42;;;;;;;14.07;11.97;;;12.50;1.00;;;;;;5091467;28;20558;-80
2024/03/10 08:22:09;;;;;;;14.83;11.53;;;12.40;1.00;;;;;;5093373;28;20274;-82
2024/03/10 08:24:37;;;;;;;16.27;12.37;;;12.30;1.00;;;;;;5091183;28;20700;-82
2024/03/10 08:27:04;;;;;;;14.53;11.60;;;12.20;1.00;;;;;;5091206;28;20171;-80
2024/03/10 08:29:29;;;;;;;14.47;11.50;;;12.40;1.00;;;;;;5091429;28;20611;-80
2024/03/10 08:31:56;;;;;;;15.13;12.03;;;12.60;1.00;;;;;;5091538;28;20224;-81
2024/03/10 08:34:21;;;;;;;14.47;12.40;;;12.70;1.00;;;;;;5090850;28;20256;-83
2024/03/10 08:36:47;;;;;;;18.17;13.23;;;12.80;1.00;;;;;;5091066;28;20173;-82
2024/03/10 08:39:16;;;;;;;15.47;12.87;;;12.90;1.00;;;;;;5088467;28;20199;-83
2024/03/10 08:41:42;;;;;;;17.90;12.80;;;13.00;1.00;;;;;;5071390;28;20182;-88
2024/03/10 08:44:08;;;;;;;16.90;12.40;;;13.00;1.00;;;;;;5088741;28;20175;-81
2024/03/10 08:46:34;;;;;;;14.53;11.87;;;13.00;1.00;;;;;;5092657;28;20316;-81
2024/03/10 08:49:00;;;;;;;16.70;12.30;;;13.10;1.00;;;;;;5090871;28;20266;-82
2024/03/10 08:51:27;;;;;;;17.60;12.87;;;13.10;1.00;;;;;;5091344;28;20553;-83
2024/03/10 08:53:53;;;;;;;15.63;12.80;;;13.00;1.00;;;;;;5082114;28;20223;-80
2024/03/10 08:56:19;;;;;;;16.57;12.93;;;13.10;1.00;;;;;;5076640;28;20220;-83
2024/03/10 08:58:45;;;;;;;16.60;13.57;;;13.20;1.00;;;;;;5083089;28;20279;-79
2024/03/10 09:01:11;;;;;;;15.47;13.03;;;13.10;1.00;;;;;;5088272;28;20171;-80
2024/03/10 09:03:38;;;;;;;16.47;13.43;;;13.10;1.00;;;;;;5088144;28;20194;-84
2024/03/10 09:06:04;;;;;;;18.90;14.57;;;13.00;1.00;;;;;;5083400;28;20670;-82
2024/03/10 09:08:30;;;;;;;16.30;14.30;;;13.10;1.00;;;;;;5081240;28;20660;-82
2024/03/10 09:10:57;;;;;;;17.70;14.13;;;13.20;1.00;;;;;;5086028;28;20311;-90
2024/03/10 09:13:23;;;;;;;19.70;13.90;;;13.20;1.00;;;;;;5088851;28;20567;-82
2024/03/10 09:15:48;;;;;;;17.60;14.53;;;13.40;1.00;;;;;;5082079;28;20180;-81
2024/03/10 09:18:14;;;;;;;19.67;14.43;;;13.50;1.00;;;;;;5081269;28;20175;-81
2024/03/10 09:20:42;;;;;;;17.10;14.07;;;13.50;1.00;;;;;;5083032;28;20592;-82
2024/03/10 09:23:07;;;;;;;17.03;13.83;;;13.30;1.00;;;;;;5078767;28;20545;-81
2024/03/10 09:25:34;;;;;;;15.87;13.17;;;13.30;1.00;;;;;;5079683;28;20257;-82
2024/03/10 09:28:00;;;;;;;16.80;13.27;;;13.30;1.00;;;;;;5073021;28;20241;-82
2024/03/10 09:30:30;;;;;;;15.90;13.63;;;13.40;1.00;;;;;;5069018;28;20495;-83
2024/03/10 09:32:56;;;;;;;16.20;13.13;;;13.50;1.00;;;;;;5070455;28;20176;-81
2024/03/10 09:35:29;;;;;;;16.57;13.03;;;13.40;1.00;;;;;;5071903;28;20179;-82
2024/03/10 09:38:00;;;;;;;18.20;13.47;;;13.40;1.00;;;;;;5084703;28;20179;-83
2024/03/10 09:40:29;;;;;;;18.23;13.80;;;13.50;1.00;;;;;;5091677;28;20666;-82
2024/03/10 09:42:59;;;;;;;18.83;13.30;;;13.50;1.00;;;;;;5091215;28;20186;-81
2024/03/10 09:45:33;;;;;;;15.90;13.10;;;13.40;1.00;;;;;;5092761;28;20166;-84
2024/03/10 09:48:01;;;;;;;18.13;13.67;;;13.40;1.00;;;;;;5095706;28;20215;-83
2024/03/10 09:50:29;;;;;;;17.13;12.93;;;13.30;1.00;;;;;;5092025;28;20172;-82
2024/03/10 09:52:58;;;;;;;17.07;13.40;;;13.20;1.00;;;;;;5085259;28;20522;-81
2024/03/10 09:55:24;;;;;;;16.30;12.17;;;13.10;1.00;;;;;;5084825;28;20706;-81
2024/03/10 09:57:53;;;;;;;14.47;12.83;;;13.20;1.00;;;;;;5084320;28;20199;-82
2024/03/10 10:00:24;;;;;;;17.07;12.90;;;13.40;1.00;;;;;;5086653;28;20175;-80
2024/03/10 10:02:58;;;;;;;17.17;12.97;;;13.30;1.00;;;;;;5073622;28;20199;-83
2024/03/10 10:05:29;;;;;;;17.13;13.60;;;13.40;1.00;;;;;;5085022;28;20181;-81
2024/03/10 10:08:07;;;;;;;15.97;12.80;;;13.50;1.00;;;;;;5088241;28;20658;-81
2024/03/10 10:10:36;;;;;;;16.47;13.80;;;13.50;1.00;;;;;;5084628;28;20187;-80
2024/03/10 10:13:03;;;;;;;15.50;12.57;;;13.60;1.00;;;;;;5082666;28;20647;-81
2024/03/10 10:15:32;;;;;;;15.33;13.50;;;13.40;1.00;;;;;;5084172;28;20171;-80
2024/03/10 10:18:05;;;;;;;15.47;13.10;;;13.40;1.00;;;;;;5095216;28;20173;-84
2024/03/10 10:20:32;;;;;;;19.03;14.00;;;13.30;1.00;;;;;;5094202;28;20290;-81
2024/03/10 10:23:04;;;;;;;15.57;12.70;;;13.20;1.00;;;;;;5092537;28;20175;-83
2024/03/10 10:25:35;;;;;;;17.60;13.60;;;13.30;1.00;;;;;;5094009;28;20171;-82
2024/03/10 10:28:02;;;;;;;17.27;12.93;;;13.40;1.00;;;;;;5095524;28;20171;-83
2024/03/10 10:30:29;;;;;;;16.87;13.77;;;13.60;1.00;;;;;;5092550;28;20364;-87
2024/03/10 10:33:05;;;;;;;17.20;13.87;;;13.60;1.00;;;;;;5094199;28;20212;-89
2024/03/10 10:35:45;;;;;;;17.70;13.13;;;13.60;1.00;;;;;;5094710;28;20174;-80
2024/03/10 10:38:12;;;;;;;15.53;13.67;;;13.20;1.00;;;;;;5093203;28;20175;-83
2024/03/10 10:40:39;;;;;;;17.03;13.50;;;12.80;1.00;;;;;;5093487;28;20179;-81
2024/03/10 10:43:12;;;;;;;16.00;13.47;;;12.90;1.00;;;;;;5094227;28;20198;-81
2024/03/10 10:45:38;;;;;;;22.20;14.27;;;13.00;1.00;;;;;;5093815;28;20178;-83
2024/03/10 10:48:07;;;;;;;17.57;14.10;;;12.80;1.00;;;;;;5094410;28;20168;-82
2024/03/10 10:50:34;;;;;;;17.83;14.30;;;12.90;1.00;;;;;;5095325;28;20248;-82
2024/03/10 10:53:06;;;;;;;18.73;14.83;;;12.80;1.00;;;;;;5093883;28;20213;-83
2024/03/10 10:55:33;;;;;;;18.63;14.60;;;12.70;1.00;;;;;;5093231;28;20246;-81
2024/03/10 10:58:05;;;;;;;18.03;14.67;;;12.50;1.00;;;;;;5092174;28;20225;-84
2024/03/10 11:00:32;;;;;;;20.60;14.60;;;12.40;1.00;;;;;;5092878;28;20262;-82
2024/03/10 11:03:14;;;;;;;18.10;15.17;;;12.30;1.00;;;;;;5092967;28;20614;-83
2024/03/10 11:05:41;;;;;;;18.77;14.97;;;12.20;1.00;;;;;;5094767;28;20165;-82
2024/03/10 11:08:08;;;;;;;20.33;14.97;;;12.20;1.00;;;;;;5076624;28;20206;-81
2024/03/10 11:10:46;;;;;;;16.77;14.70;;;12.30;1.00;;;;;;5093134;28;20246;-83
2024/03/10 11:13:13;;;;;;;18.47;14.70;;;12.20;1.00;;;;;;5093256;28;20175;-83
2024/03/10 11:15:40;;;;;;;17.13;14.53;;;12.20;1.00;;;;;;5093807;28;20211;-83
2024/03/10 11:18:26;;;;;;;18.13;15.13;;;12.30;1.00;;;;;;5093409;28;20234;-82
2024/03/10 11:20:56;;;;;;;20.47;15.23;;;12.50;1.00;;;;;;5093546;28;20195;-81
2024/03/10 11:23:43;;;;;;;19.33;14.87;;;12.40;1.00;;;;;;5093383;28;20265;-83
2024/03/10 11:26:15;;;;;;;16.77;14.10;;;12.30;1.00;;;;;;5093143;28;20258;-82
2024/03/10 11:28:55;;;;;;;20.23;16.23;;;12.20;1.00;;;;;;5093248;28;20194;-81
2024/03/10 11:31:23;;;;;;;18.43;14.70;;;12.40;1.00;;;;;;5094119;28;20172;-82
2024/03/10 11:33:51;;;;;;;18.00;14.47;;;12.40;1.00;;;;;;5092878;28;20277;-81
2024/03/10 11:36:23;;;;;;;16.60;14.20;;;12.30;1.00;;;;;;5093270;28;20168;-81
2024/03/10 11:38:50;;;;;;;18.77;15.33;;;12.30;1.00;;;;;;5092457;28;20252;-82
2024/03/10 11:41:16;;;;;;;18.87;14.83;;;12.50;1.00;;;;;;5093022;28;20193;-82
2024/03/10 11:43:43;;;;;;;20.83;15.67;;;12.60;1.00;;;;;;5093643;28;20235;-83
2024/03/10 11:46:31;;;;;;;17.27;14.77;;;12.50;1.00;;;;;;5093155;28;20186;-83
2024/03/10 11:48:57;;;;;;;19.53;15.13;;;12.30;1.00;;;;;;5094390;28;20182;-83
2024/03/10 11:51:28;;;;;;;17.53;15.03;;;12.30;1.00;;;;;;5093415;28;20183;-82
2024/03/10 11:53:56;;;;;;;18.53;15.00;;;12.10;1.00;;;;;;5093246;28;20211;-81
2024/03/10 11:56:23;;;;;;;18.53;14.70;;;12.20;1.00;;;;;;5092772;28;20216;-83
2024/03/10 11:58:50;;;;;;;17.13;13.47;;;12.10;1.00;;;;;;5092861;28;20177;-83
2024/03/10 12:01:16;;;;;;;20.60;15.63;;;12.00;1.00;;;;;;5093945;28;20271;-82
2024/03/10 12:03:44;;;;;;;17.93;13.93;;;12.00;1.00;;;;;;5092792;28;20183;-83
2024/03/10 12:06:10;;;;;;;19.27;14.00;;;12.00;1.00;;;;;;5092461;28;20201;-83
2024/03/10 12:08:42;;;;;;;20.43;14.93;;;12.00;1.00;;;;;;5087163;28;20184;-82
2024/03/10 12:11:11;;;;;;;15.83;13.40;;;11.90;1.00;;;;;;5073716;28;20561;-82
2024/03/10 12:13:41;;;;;;;20.10;14.33;;;11.90;1.00;;;;;;5072547;28;20212;-82
2024/03/10 12:16:07;;;;;;;20.63;15.83;;;12.00;1.00;;;;;;5071859;28;20217;-82
2024/03/10 12:18:35;;;;;;;20.10;13.83;;;12.10;1.00;;;;;;5073539;28;20165;-82
2024/03/10 12:21:03;;;;;;;16.73;13.53;;;12.00;1.00;;;;;;5071724;28;20172;-82
2024/03/10 12:23:36;;;;;;;16.13;13.93;;;12.10;1.00;;;;;;5071671;28;20172;-84
2024/03/10 12:26:09;;;;;;;15.63;12.30;;;12.10;1.00;;;;;;5071773;28;20539;-82
2024/03/10 12:28:36;;;;;;;18.97;13.60;;;12.20;1.00;;;;;;5072774;28;20173;-82
2024/03/10 12:31:12;;;;;;;17.40;13.83;;;12.10;1.00;;;;;;5073467;28;20169;-83
2024/03/10 12:33:42;;;;;;;17.90;14.97;;;12.20;1.00;;;;;;5071070;28;20560;-82
2024/03/10 12:36:12;;;;;;;18.37;15.07;;;12.10;1.00;;;;;;5071541;28;20211;-82
2024/03/10 12:38:41;;;;;;;16.07;13.67;;;12.10;1.00;;;;;;5078751;28;20278;-82
2024/03/10 12:41:08;;;;;;;18.07;14.60;;;12.30;1.00;;;;;;5092097;28;20179;-83
2024/03/10 12:43:34;;;;;;;15.97;13.30;;;12.30;1.00;;;;;;5093425;28;20338;-84
2024/03/10 12:46:04;;;;;;;18.33;13.90;;;12.60;1.00;;;;;;5091817;28;20566;-82
2024/03/10 12:48:30;;;;;;;16.17;13.33;;;12.80;1.00;;;;;;5091880;28;20214;-82
2024/03/10 12:50:56;;;;;;;18.33;14.63;;;13.00;1.00;;;;;;5091456;28;20178;-82
2024/03/10 12:53:23;;;;;;;17.63;14.33;;;13.30;1.00;;;;;;5091603;28;20575;-81
2024/03/10 12:55:50;;;;;;;18.20;14.63;;;13.40;1.00;;;;;;5092003;28;20365;-83
2024/03/10 12:58:16;;;;;;;18.67;14.00;;;13.50;1.00;;;;;;5091511;28;20272;-82
2024/03/10 13:00:42;;;;;;;19.17;15.00;;;13.70;1.00;;;;;;5093282;28;20168;-82
2024/03/10 13:03:08;;;;;;;16.67;13.90;;;14.00;1.00;;;;;;5091263;28;20862;-83